createdAt,value
2022-12-09T00:00:32.461Z,100228.94
2022-12-09T00:03:00.325Z,100227.22
2022-12-09T00:05:27.690Z,100221.19
2022-12-09T00:07:55.193Z,100219.44
2022-12-09T00:10:22.455Z,100223.75
2022-12-09T00:12:49.659Z,100218.59
2022-12-09T00:15:17.054Z,100221.19
2022-12-09T00:17:44.263Z,100220.31
2022-12-09T00:20:12.293Z,100220.31
2022-12-09T00:22:39.826Z,100218.56
2022-12-09T00:25:07.830Z,100223.75
2022-12-09T00:27:35.212Z,100230.66
2022-12-09T00:30:02.531Z,100227.22
2022-12-09T00:32:30.155Z,100220.28
2022-12-09T00:34:57.437Z,100236.63
2022-12-09T00:37:24.774Z,100234.91
2022-12-09T00:39:52.026Z,100239.25
2022-12-09T00:42:19.218Z,100238.38
2022-12-09T00:44:46.522Z,100246.09
2022-12-09T00:47:13.997Z,100246.09
2022-12-09T00:49:41.560Z,100246.13
2022-12-09T00:52:09.068Z,100241.78
2022-12-09T00:54:36.333Z,100235.78
2022-12-09T00:57:03.599Z,100236.69
2022-12-09T00:59:30.835Z,100239.28
2022-12-09T01:01:58.300Z,100239.28
2022-12-09T01:04:25.678Z,100240.97
2022-12-09T01:06:53.006Z,100243.56
2022-12-09T01:09:20.308Z,100234.94
2022-12-09T01:11:47.561Z,100248.75
2022-12-09T01:14:14.781Z,100238.44
2022-12-09T01:16:42.089Z,100244.47
2022-12-09T01:19:10.860Z,100242.72
2022-12-09T01:21:38.376Z,100245.34
2022-12-09T01:24:12.162Z,100247.91
2022-12-09T01:26:39.955Z,100249.66
2022-12-09T01:29:07.357Z,100245.34
2022-12-09T01:31:34.992Z,100237.56
2022-12-09T01:34:02.251Z,100242.75
2022-12-09T01:36:30.526Z,100242.75
2022-12-09T01:38:59.471Z,100246.19
2022-12-09T01:41:26.940Z,100247.91
2022-12-09T01:44:24.692Z,100249.63
2022-12-09T01:46:56.863Z,100250.50
2022-12-09T01:49:42.545Z,100249.63
2022-12-09T01:52:12.584Z,100247.03
2022-12-09T01:54:41.850Z,100246.16
2022-12-09T01:57:09.030Z,100249.63
2022-12-09T01:59:37.835Z,100243.59
2022-12-09T02:02:06.595Z,100240.13
2022-12-09T02:04:39.662Z,100247.03
2022-12-09T02:07:10.000Z,100242.72
2022-12-09T02:09:38.206Z,100244.44
2022-12-09T02:12:20.521Z,100238.38
2022-12-09T02:15:12.924Z,100244.41
2022-12-09T02:17:42.341Z,100248.72
2022-12-09T02:20:18.595Z,100249.56
2022-12-09T02:22:49.495Z,100249.56
2022-12-09T02:25:33.491Z,100246.09
2022-12-09T02:28:11.749Z,100248.69
2022-12-09T02:30:52.318Z,100234.00
2022-12-09T02:33:43.668Z,100230.56
2022-12-09T02:36:15.453Z,100227.09
2022-12-09T02:38:44.322Z,100234.03
2022-12-09T02:41:19.109Z,100233.16
2022-12-09T02:43:50.795Z,100234.00
2022-12-09T02:46:20.210Z,100233.19
2022-12-09T02:48:49.351Z,100227.16
2022-12-09T02:51:18.815Z,100232.34
2022-12-09T02:53:46.895Z,100234.91
2022-12-09T02:56:15.656Z,100225.41
2022-12-09T02:58:42.882Z,100230.59
2022-12-09T03:01:32.539Z,100230.59
2022-12-09T03:03:59.866Z,100235.75
2022-12-09T03:06:32.162Z,100228.00
2022-12-09T03:09:08.187Z,100231.44
2022-12-09T03:11:36.517Z,100233.16
2022-12-09T03:14:20.169Z,100233.19
2022-12-09T03:17:01.314Z,100234.03
2022-12-09T03:19:37.951Z,100234.03
2022-12-09T03:22:09.370Z,100223.69
2022-12-09T03:24:55.833Z,100222.88
2022-12-09T03:27:26.642Z,100221.16
2022-12-09T03:29:54.086Z,100221.13
2022-12-09T03:32:23.871Z,100225.44
2022-12-09T03:34:52.328Z,100221.13
2022-12-09T03:37:21.167Z,100222.84
2022-12-09T03:39:48.859Z,100226.31
2022-12-09T03:42:20.663Z,100216.81
2022-12-09T03:44:57.320Z,100221.13
2022-12-09T03:47:24.693Z,100220.25
2022-12-09T03:49:51.999Z,100224.59
2022-12-09T03:52:34.153Z,100216.84
2022-12-09T03:55:06.594Z,100214.25
2022-12-09T03:57:37.686Z,100218.56
2022-12-09T04:00:06.650Z,100218.53
2022-12-09T04:02:34.436Z,100215.09
2022-12-09T04:05:01.818Z,100215.09
2022-12-09T04:07:29.078Z,100212.50
2022-12-09T04:09:56.534Z,100221.97
2022-12-09T04:12:23.742Z,100226.25
2022-12-09T04:14:51.263Z,100219.38
2022-12-09T04:17:18.864Z,100221.97
2022-12-09T04:19:46.116Z,100222.00
2022-12-09T04:22:13.992Z,100221.13
2022-12-09T04:24:41.207Z,100222.84
2022-12-09T04:27:10.066Z,100215.91
2022-12-09T04:29:37.261Z,100218.53
2022-12-09T04:32:05.287Z,100220.25
2022-12-09T04:34:34.031Z,100219.38
2022-12-09T04:37:01.299Z,100215.06
2022-12-09T04:39:29.216Z,100211.66
2022-12-09T04:41:56.520Z,100215.13
2022-12-09T04:44:23.900Z,100212.53
2022-12-09T04:46:51.163Z,100215.97
2022-12-09T04:49:18.595Z,100216.84
2022-12-09T04:51:45.814Z,100220.31
2022-12-09T04:54:14.121Z,100219.44
2022-12-09T04:56:41.805Z,100231.50
2022-12-09T04:59:09.446Z,100226.34
2022-12-09T05:01:37.100Z,100223.75
2022-12-09T05:04:04.883Z,100228.06
2022-12-09T05:06:32.955Z,100226.34
2022-12-09T05:09:00.630Z,100228.06
2022-12-09T05:11:28.279Z,100221.19
2022-12-09T05:13:56.017Z,100220.34
2022-12-09T05:16:24.107Z,100218.59
2022-12-09T05:18:51.577Z,100214.25
2022-12-09T05:21:20.496Z,100217.72
2022-12-09T05:23:48.657Z,100220.28
2022-12-09T05:26:20.833Z,100215.97
2022-12-09T05:28:48.684Z,100216.84
2022-12-09T05:31:21.065Z,100218.63
2022-12-09T05:33:49.742Z,100220.31
2022-12-09T05:36:20.867Z,100229.81
2022-12-09T05:38:48.436Z,100232.38
2022-12-09T05:41:16.637Z,100231.53
2022-12-09T05:43:44.049Z,100230.69
2022-12-09T05:46:11.758Z,100231.53
2022-12-09T05:48:39.833Z,100234.97
2022-12-09T05:51:10.512Z,100236.69
2022-12-09T05:53:37.939Z,100237.56
2022-12-09T05:56:05.797Z,100241.00
2022-12-09T05:58:33.666Z,100231.50
2022-12-09T06:01:08.127Z,100234.94
2022-12-09T06:03:36.509Z,100231.50
2022-12-09T06:06:09.405Z,100233.25
2022-12-09T06:08:37.937Z,100225.47
2022-12-09T06:11:08.717Z,100231.50
2022-12-09T06:13:36.128Z,100227.19
2022-12-09T06:16:05.421Z,100226.31
2022-12-09T06:18:33.784Z,100233.19
2022-12-09T06:21:04.893Z,100228.91
2022-12-09T06:23:32.157Z,100228.91
2022-12-09T06:25:59.542Z,100235.81
2022-12-09T06:28:26.859Z,100231.50
2022-12-09T06:30:54.503Z,100230.63
2022-12-09T06:33:52.457Z,100242.69
2022-12-09T06:36:09.634Z,100237.50
2022-12-09T06:38:37.143Z,100246.13
2022-12-09T06:41:12.960Z,100240.94
2022-12-09T06:43:41.409Z,100240.94
2022-12-09T06:46:13.012Z,100253.03
2022-12-09T06:48:40.943Z,100250.41
2022-12-09T06:51:08.338Z,100250.41
2022-12-09T06:53:36.124Z,100246.09
2022-12-09T06:56:11.514Z,100249.53
2022-12-09T06:58:39.320Z,100253.84
2022-12-09T07:01:18.401Z,100243.47
2022-12-09T07:03:48.205Z,100251.28
2022-12-09T07:06:26.780Z,100252.16
2022-12-09T07:08:54.869Z,100244.41
2022-12-09T07:11:22.613Z,100254.75
2022-12-09T07:13:51.533Z,100253.06
2022-12-09T07:16:19.389Z,100251.31
2022-12-09T07:18:46.980Z,100251.31
2022-12-09T07:21:16.897Z,100254.75
2022-12-09T07:23:44.757Z,100246.13
2022-12-09T07:26:12.523Z,100244.41
2022-12-09T07:28:42.642Z,100253.03
2022-12-09T07:31:23.620Z,100258.25
2022-12-09T07:33:52.854Z,100259.09
2022-12-09T07:36:22.294Z,100259.09
2022-12-09T07:38:57.191Z,100263.44
2022-12-09T07:41:25.240Z,100261.72
2022-12-09T07:43:52.912Z,100266.03
2022-12-09T07:46:21.710Z,100259.13
2022-12-09T07:48:49.507Z,100260.00
2022-12-09T07:51:17.020Z,100264.28
2022-12-09T07:53:44.560Z,100270.31
2022-12-09T07:56:14.787Z,100268.59
2022-12-09T07:58:43.097Z,100268.59
2022-12-09T08:01:17.448Z,100274.63
2022-12-09T08:03:45.607Z,100271.19
2022-12-09T08:06:16.140Z,100259.97
2022-12-09T08:08:44.257Z,100264.31
2022-12-09T08:11:14.651Z,100274.66
2022-12-09T08:13:42.450Z,100276.34
2022-12-09T08:16:12.495Z,100268.59
2022-12-09T08:18:41.297Z,100270.31
2022-12-09T08:21:14.139Z,100275.50
2022-12-09T08:23:42.044Z,100271.16
2022-12-09T08:26:10.785Z,100274.63
2022-12-09T08:28:39.434Z,100276.38
2022-12-09T08:31:15.597Z,100284.13
2022-12-09T08:33:43.499Z,100280.69
2022-12-09T08:36:16.660Z,100281.53
2022-12-09T08:38:44.231Z,100282.44
2022-12-09T08:41:17.016Z,100287.56
2022-12-09T08:43:45.022Z,100284.13
2022-12-09T08:46:12.962Z,100285.00
2022-12-09T08:48:41.723Z,100283.25
2022-12-09T08:51:10.625Z,100289.31
2022-12-09T08:53:38.396Z,100278.97
2022-12-09T08:56:15.558Z,100285.88
2022-12-09T08:58:43.341Z,100286.72
2022-12-09T09:01:19.811Z,100284.13
2022-12-09T09:03:49.090Z,100294.47
2022-12-09T09:06:18.158Z,100290.16
2022-12-09T09:08:46.060Z,100297.91
2022-12-09T09:11:16.805Z,100290.13
2022-12-09T09:13:46.043Z,100297.91
2022-12-09T09:16:16.011Z,100295.31
2022-12-09T09:18:44.687Z,100299.66
2022-12-09T09:21:13.992Z,100300.50
2022-12-09T09:23:42.803Z,100303.09
2022-12-09T09:26:15.203Z,100302.25
2022-12-09T09:28:43.238Z,100295.31
2022-12-09T09:31:13.376Z,100307.41
2022-12-09T09:33:40.996Z,100303.94
2022-12-09T09:36:12.200Z,100303.09
2022-12-09T09:38:40.246Z,100300.53
2022-12-09T09:41:28.081Z,100300.53
2022-12-09T09:43:56.347Z,100301.38
2022-12-09T09:46:44.973Z,100298.75
2022-12-09T09:49:27.855Z,100295.31
2022-12-09T09:51:55.679Z,100290.97
2022-12-09T09:54:23.485Z,100293.59
2022-12-09T09:57:20.079Z,100287.53
2022-12-09T10:00:05.015Z,100288.41
2022-12-09T10:03:01.502Z,100284.13
2022-12-09T10:05:35.660Z,100287.56
2022-12-09T10:08:33.782Z,100278.03
2022-12-09T10:11:21.090Z,100270.28
2022-12-09T10:14:14.523Z,100282.38
2022-12-09T10:17:13.714Z,100272.88
2022-12-09T10:19:48.754Z,100273.75
2022-12-09T10:22:20.398Z,100276.38
2022-12-09T10:25:00.004Z,100263.41
2022-12-09T10:27:31.413Z,100267.69
2022-12-09T10:30:12.796Z,100267.66
2022-12-09T10:32:44.041Z,100265.06
2022-12-09T10:35:18.043Z,100261.63
2022-12-09T10:37:47.921Z,100262.50
2022-12-09T10:40:24.014Z,100269.41
2022-12-09T10:43:10.256Z,100268.59
2022-12-09T10:48:44.723Z,100273.69
2022-12-09T10:51:22.922Z,100265.94
2022-12-09T10:54:02.909Z,100260.75
2022-12-09T10:56:33.458Z,100253.91
2022-12-09T10:59:18.021Z,100245.22
2022-12-09T11:02:02.054Z,100246.94
2022-12-09T11:04:36.342Z,100251.25
2022-12-09T11:07:12.038Z,100243.53
2022-12-09T11:09:44.811Z,100245.25
2022-12-09T11:12:20.277Z,100242.69
2022-12-09T11:14:56.906Z,100236.63
2022-12-09T11:17:25.318Z,100229.72
2022-12-09T11:20:07.900Z,100228.00
2022-12-09T11:22:44.185Z,100229.72
2022-12-09T11:25:32.498Z,100231.38
2022-12-09T11:28:06.095Z,100226.19
2022-12-09T11:30:40.654Z,100233.94
2022-12-09T11:33:15.227Z,100220.97
2022-12-09T11:35:45.879Z,100223.53
2022-12-09T11:38:31.893Z,100223.53
2022-12-09T11:41:10.840Z,100231.31
2022-12-09T11:43:48.319Z,100228.72
2022-12-09T11:46:20.795Z,100231.34
2022-12-09T11:48:56.817Z,100225.44
2022-12-09T11:51:33.005Z,100228.97
2022-12-09T11:54:21.864Z,100222.91
2022-12-09T11:56:50.359Z,100218.56
2022-12-09T11:59:34.773Z,100220.31
2022-12-09T12:02:26.638Z,100222.84
2022-12-09T12:05:01.733Z,100223.69
2022-12-09T12:07:47.380Z,100217.69
2022-12-09T12:10:25.514Z,100212.50
2022-12-09T12:13:02.830Z,100210.72
2022-12-09T12:15:34.781Z,100214.06
2022-12-09T12:21:18.857Z,100200.19
2022-12-09T12:24:25.792Z,100203.72
2022-12-09T12:27:09.595Z,100209.81
2022-12-09T12:29:40.963Z,100205.53
2022-12-09T12:32:25.916Z,100199.41
2022-12-09T12:35:22.360Z,100195.97
2022-12-09T12:38:04.071Z,100196.00
2022-12-09T12:41:02.209Z,100193.44
2022-12-09T12:44:18.858Z,100189.19
2022-12-09T12:47:04.925Z,100190.94
2022-12-09T12:49:55.389Z,100194.34
2022-12-09T12:56:03.969Z,100184.81
2022-12-09T12:58:37.975Z,100196.91
2022-12-09T13:01:08.381Z,100188.25
2022-12-09T13:03:38.624Z,100190.78
2022-12-09T13:06:10.263Z,100190.75
2022-12-09T13:09:03.011Z,100178.63
2022-12-09T13:11:48.200Z,100182.22
2022-12-09T13:14:21.244Z,100188.31
2022-12-09T13:16:49.601Z,100184.84
2022-12-09T13:19:27.880Z,100187.50
2022-12-09T13:21:55.963Z,100178.81
2022-12-09T13:24:42.751Z,100184.00
2022-12-09T13:27:23.015Z,100188.31
2022-12-09T13:30:03.957Z,100189.16
2022-12-09T13:32:49.796Z,100190.03
2022-12-09T13:36:06.264Z,100194.34
2022-12-09T13:38:39.737Z,100193.47
2022-12-09T13:41:51.894Z,100186.59
2022-12-09T13:44:19.271Z,100193.59
2022-12-09T13:46:46.549Z,100190.16
2022-12-09T13:49:28.872Z,100197.91
2022-12-09T13:51:57.009Z,100199.66
2022-12-09T13:54:28.305Z,100197.91
2022-12-09T13:57:23.529Z,100201.34
2022-12-09T13:59:55.447Z,100203.03
2022-12-09T14:02:22.831Z,100209.97
2022-12-09T14:05:10.740Z,100203.94
2022-12-09T14:07:51.933Z,100201.31
2022-12-09T14:10:40.711Z,100209.03
2022-12-09T14:13:46.573Z,100204.72
2022-12-09T14:16:34.528Z,100209.91
2022-12-09T14:19:26.406Z,100207.28
2022-12-09T14:22:17.178Z,100208.13
2022-12-09T14:24:45.448Z,100207.31
2022-12-09T14:27:14.545Z,100209.88
2022-12-09T14:29:47.830Z,100209.06
2022-12-09T14:32:32.277Z,100213.44
2022-12-09T14:35:02.924Z,100199.63
2022-12-09T14:37:43.155Z,100202.22
2022-12-09T14:40:26.041Z,100204.81
2022-12-09T14:43:25.213Z,100200.53
2022-12-09T14:46:02.409Z,100191.03
2022-12-09T14:48:40.412Z,100197.03
2022-12-09T14:51:20.526Z,100199.59
2022-12-09T14:53:52.637Z,100197.00
2022-12-09T14:56:21.795Z,100198.72
2022-12-09T14:59:18.166Z,100199.53
2022-12-09T15:02:00.460Z,100208.22
2022-12-09T15:04:42.065Z,100209.09
2022-12-09T15:07:15.562Z,100204.81
2022-12-09T15:09:50.331Z,100209.13
2022-12-09T15:12:18.005Z,100209.97
2022-12-09T15:14:46.660Z,100207.38
2022-12-09T15:17:27.567Z,100210.84
2022-12-09T15:20:02.063Z,100217.75
2022-12-09T15:22:31.930Z,100220.31
2022-12-09T15:24:59.902Z,100217.75
2022-12-09T15:27:27.193Z,100216.00
2022-12-09T15:29:54.964Z,100220.31
2022-12-09T15:32:28.779Z,100222.03
2022-12-09T15:34:56.138Z,100223.78
2022-12-09T15:37:28.202Z,100228.94
2022-12-09T15:40:05.824Z,100227.22
2022-12-09T15:42:34.623Z,100225.50
2022-12-09T15:45:08.643Z,100227.22
2022-12-09T15:48:03.795Z,100221.19
2022-12-09T15:50:54.672Z,100230.66
2022-12-09T15:53:36.749Z,100222.88
2022-12-09T15:56:12.357Z,100214.25
2022-12-09T15:58:45.985Z,100223.78
2022-12-09T16:01:23.147Z,100219.44
2022-12-09T16:03:51.872Z,100216.84
2022-12-09T16:06:26.835Z,100222.94
2022-12-09T16:08:54.431Z,100238.41
2022-12-09T16:11:37.753Z,100234.09
2022-12-09T16:14:08.552Z,100234.03
2022-12-09T16:17:03.061Z,100231.47
2022-12-09T16:19:38.248Z,100251.25
2022-12-09T16:22:16.044Z,100242.66
2022-12-09T16:25:13.672Z,100232.31
2022-12-09T16:27:44.970Z,100235.81
2022-12-09T16:30:23.677Z,100238.38
2022-12-09T16:32:59.120Z,100234.94
2022-12-09T16:35:40.134Z,100229.78
2022-12-09T16:38:10.226Z,100233.22
2022-12-09T16:40:43.964Z,100228.81
2022-12-09T16:43:17.458Z,100226.19
2022-12-09T16:45:47.041Z,100227.94
2022-12-09T16:48:14.897Z,100230.53
2022-12-09T16:50:49.440Z,100231.47
2022-12-09T16:53:19.735Z,100229.75
2022-12-09T16:56:19.402Z,100226.34
2022-12-09T16:58:46.677Z,100226.31
2022-12-09T17:01:28.676Z,100220.28
2022-12-09T17:04:04.076Z,100215.94
2022-12-09T17:06:31.660Z,100209.03
2022-12-09T17:08:59.029Z,100217.66
2022-12-09T17:11:26.239Z,100220.28
2022-12-09T17:13:53.750Z,100216.00
2022-12-09T17:16:23.881Z,100209.13
2022-12-09T17:21:49.343Z,100209.97
2022-12-09T17:24:16.716Z,100207.41
2022-12-09T17:26:43.999Z,100213.44
2022-12-09T17:29:11.197Z,100206.53
2022-12-09T17:31:38.740Z,100212.56
2022-12-09T17:34:06.134Z,100211.69
2022-12-09T17:36:33.515Z,100222.00
2022-12-09T17:39:02.557Z,100216.00
2022-12-09T17:41:29.872Z,100222.03
2022-12-09T17:43:59.209Z,100222.91
2022-12-09T17:46:26.368Z,100216.00
2022-12-09T17:48:53.646Z,100223.75
2022-12-09T17:51:23.955Z,100216.78
2022-12-09T17:53:51.202Z,100215.06
2022-12-09T17:56:20.436Z,100222.81
2022-12-09T17:58:58.091Z,100220.25
2022-12-09T18:01:25.500Z,100224.56
2022-12-09T18:04:01.357Z,100227.16
2022-12-09T18:06:34.757Z,100230.63
2022-12-09T18:09:04.334Z,100235.78
2022-12-09T18:11:31.484Z,100223.72
2022-12-09T18:13:59.765Z,100232.34
2022-12-09T18:16:27.220Z,100234.91
2022-12-09T18:18:54.761Z,100234.09
2022-12-09T18:21:22.300Z,100228.91
2022-12-09T18:23:49.584Z,100228.06
2022-12-09T18:26:18.390Z,100234.97
2022-12-09T18:28:46.182Z,100238.41
2022-12-09T18:31:15.961Z,100239.28
2022-12-09T18:33:43.806Z,100246.16
2022-12-09T18:36:24.317Z,100246.13
2022-12-09T18:38:53.996Z,100248.69
2022-12-09T18:41:26.623Z,100244.38
2022-12-09T18:43:55.679Z,100246.09
2022-12-09T18:46:28.601Z,100248.66
2022-12-09T18:48:58.479Z,100246.09
2022-12-09T18:51:26.186Z,100250.41
2022-12-09T18:53:56.778Z,100252.19
2022-12-09T18:56:24.479Z,100260.81
2022-12-09T18:59:08.947Z,100259.09
2022-12-09T19:01:41.484Z,100266.81
2022-12-09T19:04:23.654Z,100269.41
2022-12-09T19:06:53.217Z,100265.09
2022-12-09T19:09:26.436Z,100266.88
2022-12-09T19:11:53.896Z,100265.13
2022-12-09T19:14:22.923Z,100266.88
2022-12-09T19:16:51.090Z,100256.50
2022-12-09T19:19:20.872Z,100260.84
2022-12-09T19:21:48.749Z,100267.72
2022-12-09T19:24:25.541Z,100257.34
2022-12-09T19:26:54.861Z,100272.88
2022-12-09T19:29:24.706Z,100260.78
2022-12-09T19:31:52.858Z,100257.34
2022-12-09T19:34:22.598Z,100259.94
2022-12-09T19:36:51.211Z,100269.41
2022-12-09T19:39:20.870Z,100266.84
2022-12-09T19:41:48.523Z,100272.84
2022-12-09T19:44:30.929Z,100275.41
2022-12-09T19:47:04.921Z,100268.50
2022-12-09T19:49:32.247Z,100272.88
2022-12-09T19:52:00.021Z,100282.38
2022-12-09T19:54:29.747Z,100279.78
2022-12-09T19:56:57.590Z,100280.63
2022-12-09T19:59:26.199Z,100278.06
2022-12-09T20:01:53.622Z,100266.00
2022-12-09T20:04:48.086Z,100272.91
2022-12-09T20:07:10.009Z,100278.09
2022-12-09T20:09:37.516Z,100281.50
2022-12-09T20:12:04.933Z,100277.16
2022-12-09T20:14:32.327Z,100283.16
2022-12-09T20:16:59.843Z,100272.81
2022-12-09T20:19:27.070Z,100280.56
2022-12-09T20:21:54.270Z,100275.38
2022-12-09T20:24:21.592Z,100279.63
2022-12-09T20:26:49.091Z,100269.31
2022-12-09T20:29:16.497Z,100277.03
2022-12-09T20:31:43.909Z,100277.09
2022-12-09T20:34:16.412Z,100280.50
2022-12-09T20:36:44.920Z,100279.63
2022-12-09T20:39:18.103Z,100278.72
2022-12-09T20:41:45.926Z,100284.78
2022-12-09T20:44:14.072Z,100286.56
2022-12-09T20:46:44.899Z,100288.25
2022-12-09T20:49:12.082Z,100287.38
2022-12-09T20:51:41.386Z,100297.75
2022-12-09T20:54:09.720Z,100296.88
2022-12-09T20:56:37.073Z,100295.13
2022-12-09T20:59:04.808Z,100298.59
2022-12-09T21:01:34.173Z,100296.88
2022-12-09T21:04:03.036Z,100299.44
2022-12-09T21:06:32.391Z,100293.38
2022-12-09T21:09:00.183Z,100302.03
2022-12-09T21:11:27.899Z,100298.59
2022-12-09T21:14:00.230Z,100301.22
2022-12-09T21:16:30.336Z,100292.66
2022-12-09T21:19:00.333Z,100298.72
2022-12-09T21:21:30.130Z,100296.16
2022-12-09T21:23:57.542Z,100293.50
2022-12-09T21:26:26.182Z,100295.25
2022-12-09T21:28:54.277Z,100295.22
2022-12-09T21:31:24.110Z,100288.34
2022-12-09T21:33:53.033Z,100297.72
2022-12-09T21:36:26.208Z,100297.72
2022-12-09T21:38:53.962Z,100298.63
2022-12-09T21:41:24.527Z,100298.66
2022-12-09T21:43:55.001Z,100296.06
2022-12-09T21:46:30.505Z,100292.59
2022-12-09T21:49:03.692Z,100291.78
2022-12-09T21:51:32.611Z,100297.81
2022-12-09T21:54:00.267Z,100299.47
2022-12-09T21:56:30.678Z,100296.03
2022-12-09T21:58:59.009Z,100305.50
2022-12-09T22:01:37.645Z,100304.66
2022-12-09T22:04:07.030Z,100309.03
2022-12-09T22:06:34.544Z,100310.75
2022-12-09T22:09:02.579Z,100299.53
2022-12-09T22:11:31.606Z,100296.94
2022-12-09T22:13:59.992Z,100297.81
2022-12-09T22:16:30.578Z,100296.06
2022-12-09T22:18:59.450Z,100292.66
2022-12-09T22:21:29.213Z,100291.84
2022-12-09T22:23:59.350Z,100292.69
2022-12-09T22:26:27.172Z,100293.56
2022-12-09T22:28:54.696Z,100296.16
2022-12-09T22:31:27.214Z,100296.16
2022-12-09T22:33:56.307Z,100292.69
2022-12-09T22:36:23.835Z,100298.72
2022-12-09T22:38:52.603Z,100292.66
2022-12-09T22:41:22.124Z,100289.19
2022-12-09T22:43:50.417Z,100296.09
2022-12-09T22:46:23.902Z,100284.00
2022-12-09T22:48:51.439Z,100289.19
2022-12-09T22:51:24.087Z,100296.09
2022-12-09T22:53:53.150Z,100289.13
2022-12-09T22:56:21.454Z,100291.69
2022-12-09T22:58:48.733Z,100296.91
2022-12-09T23:01:23.400Z,100289.16
2022-12-09T23:03:50.867Z,100295.28
2022-12-09T23:06:18.028Z,100293.56
2022-12-09T23:08:45.793Z,100297.00
2022-12-09T23:11:24.310Z,100293.50
2022-12-09T23:13:51.676Z,100302.97
2022-12-09T23:16:21.665Z,100288.34
2022-12-09T23:18:49.196Z,100302.13
2022-12-09T23:21:22.473Z,100296.94
2022-12-09T23:23:53.382Z,100303.91
2022-12-09T23:26:21.916Z,100301.34
2022-12-09T23:28:50.994Z,100297.03
2022-12-09T23:31:20.850Z,100299.59
2022-12-09T23:33:48.885Z,100298.72
2022-12-09T23:36:20.737Z,100297.03
2022-12-09T23:38:48.486Z,100290.13
2022-12-09T23:41:17.444Z,100286.63
2022-12-09T23:43:45.834Z,100293.53
2022-12-09T23:46:16.101Z,100284.94
2022-12-09T23:48:47.341Z,100282.38
2022-12-09T23:51:20.018Z,100280.66
2022-12-09T23:53:49.074Z,100284.97
2022-12-09T23:56:18.434Z,100283.22
2022-12-09T23:58:45.740Z,100282.28
